createdAt,value
2019-03-23T00:02:21.427Z,50.00
2019-03-23T00:04:51.681Z,48.37
2019-03-23T00:07:21.968Z,46.77
2019-03-23T00:09:52.218Z,48.83
2019-03-23T00:12:22.507Z,52.03
2019-03-23T00:14:53.047Z,53.27
2019-03-23T00:17:23.345Z,52.03
2019-03-23T00:19:53.628Z,58.40
2019-03-23T00:22:23.873Z,52.67
2019-03-23T00:24:54.132Z,56.43
2019-03-23T00:27:24.416Z,49.43
2019-03-23T00:29:54.674Z,49.57
2019-03-23T00:32:24.931Z,49.70
2019-03-23T00:34:55.259Z,48.70
2019-03-23T00:37:25.521Z,50.00
2019-03-23T00:39:55.805Z,54.40
2019-03-23T00:42:26.138Z,50.73
2019-03-23T00:44:56.436Z,50.93
2019-03-23T00:47:26.687Z,51.70
2019-03-23T00:49:57.103Z,47.83
2019-03-23T00:52:27.357Z,46.77
2019-03-23T00:54:57.650Z,48.77
2019-03-23T00:57:28.011Z,50.10
2019-03-23T00:59:58.282Z,51.53
2019-03-23T01:02:28.665Z,49.37
2019-03-23T01:04:59.007Z,49.83
2019-03-23T01:07:29.770Z,48.67
2019-03-23T01:10:00.018Z,48.43
2019-03-23T01:12:30.273Z,52.47
2019-03-23T01:15:00.564Z,55.13
2019-03-23T01:17:30.855Z,54.77
2019-03-23T01:20:01.436Z,52.83
2019-03-23T01:22:31.730Z,51.87
2019-03-23T01:25:02.115Z,56.10
2019-03-23T01:27:32.399Z,52.33
2019-03-23T01:30:02.682Z,54.80
2019-03-23T01:32:32.959Z,58.97
2019-03-23T01:35:03.212Z,59.60
2019-03-23T01:37:33.465Z,55.43
2019-03-23T01:40:04.101Z,53.87
2019-03-23T01:42:34.390Z,54.80
2019-03-23T01:45:08.540Z,60.27
2019-03-23T01:47:38.791Z,58.87
2019-03-23T01:50:10.685Z,52.70
2019-03-23T01:52:40.978Z,52.40
2019-03-23T01:55:11.256Z,51.73
2019-03-23T01:57:41.924Z,53.00
2019-03-23T02:00:13.751Z,63.07
2019-03-23T02:02:44.034Z,58.93
2019-03-23T02:05:17.739Z,57.77
2019-03-23T02:07:48.019Z,60.40
2019-03-23T02:10:18.266Z,57.73
2019-03-23T02:12:49.179Z,58.03
2019-03-23T02:15:19.799Z,51.10
2019-03-23T02:17:50.059Z,48.47
2019-03-23T02:20:20.351Z,49.03
2019-03-23T02:22:50.915Z,55.10
2019-03-23T02:25:21.188Z,48.47
2019-03-23T02:27:51.745Z,58.67
2019-03-23T02:30:22.010Z,49.37
2019-03-23T02:32:52.265Z,51.27
2019-03-23T02:35:22.576Z,49.83
2019-03-23T02:37:52.821Z,53.13
2019-03-23T02:40:23.090Z,63.87
2019-03-23T02:42:53.338Z,49.73
2019-03-23T02:45:23.627Z,57.53
2019-03-23T02:47:53.917Z,51.23
2019-03-23T02:50:24.197Z,53.57
2019-03-23T02:52:54.452Z,46.90
2019-03-23T02:55:24.740Z,60.57
2019-03-23T02:57:55.032Z,50.07
2019-03-23T03:00:27.622Z,52.70
2019-03-23T03:02:57.508Z,50.20
2019-03-23T03:05:27.792Z,57.90
2019-03-23T03:07:58.057Z,47.67
2019-03-23T03:10:39.117Z,55.97
2019-03-23T03:13:09.386Z,49.83
2019-03-23T03:15:40.116Z,52.03
2019-03-23T03:18:10.401Z,46.30
2019-03-23T03:20:40.664Z,47.23
2019-03-23T03:23:10.915Z,46.53
2019-03-23T03:25:41.431Z,52.10
2019-03-23T03:28:11.687Z,50.03
2019-03-23T03:30:41.978Z,43.70
2019-03-23T03:33:12.458Z,47.33
2019-03-23T03:35:42.782Z,46.47
2019-03-23T03:38:13.034Z,44.37
2019-03-23T03:40:43.321Z,49.70
2019-03-23T03:43:13.575Z,50.20
2019-03-23T03:45:43.859Z,46.67
2019-03-23T03:48:14.127Z,50.30
2019-03-23T03:50:44.449Z,46.90
2019-03-23T03:53:14.715Z,45.87
2019-03-23T03:55:44.967Z,51.23
2019-03-23T03:58:15.518Z,47.87
2019-03-23T04:00:45.807Z,47.03
2019-03-23T04:03:16.341Z,50.17
2019-03-23T04:05:46.602Z,47.37
2019-03-23T04:08:16.895Z,45.70
2019-03-23T04:10:47.136Z,49.90
2019-03-23T04:13:17.427Z,55.07
2019-03-23T04:15:47.673Z,49.63
2019-03-23T04:18:17.950Z,43.70
2019-03-23T04:20:48.217Z,48.30
2019-03-23T04:23:18.489Z,50.70
2019-03-23T04:25:48.750Z,46.70
2019-03-23T04:28:19.008Z,48.20
2019-03-23T04:30:49.275Z,44.97
2019-03-23T04:33:19.619Z,43.43
2019-03-23T04:35:50.165Z,52.17
2019-03-23T04:38:23.035Z,50.93
2019-03-23T04:40:52.417Z,44.57
2019-03-23T04:43:22.674Z,50.63
2019-03-23T04:45:52.965Z,43.90
2019-03-23T04:48:23.224Z,49.63
2019-03-23T04:50:53.483Z,46.17
2019-03-23T04:53:23.746Z,47.23
2019-03-23T04:55:54.015Z,44.60
2019-03-23T04:58:26.010Z,47.80
2019-03-23T05:00:56.870Z,42.53
2019-03-23T05:03:27.145Z,42.87
2019-03-23T05:05:57.455Z,51.17
2019-03-23T05:08:33.237Z,48.33
2019-03-23T05:11:00.965Z,42.87
2019-03-23T05:13:31.263Z,50.07
2019-03-23T05:16:01.515Z,41.07
2019-03-23T05:18:31.844Z,42.90
2019-03-23T05:21:02.108Z,47.50
2019-03-23T05:23:32.617Z,51.20
2019-03-23T05:26:02.908Z,50.40
2019-03-23T05:28:33.188Z,42.30
2019-03-23T05:31:03.476Z,46.07
2019-03-23T05:33:33.731Z,43.67
2019-03-23T05:36:03.998Z,46.07
2019-03-23T05:38:43.792Z,43.90
2019-03-23T05:41:06.442Z,42.90
2019-03-23T05:43:36.694Z,44.50
2019-03-23T05:46:06.966Z,46.10
2019-03-23T05:48:37.221Z,42.73
2019-03-23T05:51:07.483Z,50.00
2019-03-23T05:53:37.774Z,42.93
2019-03-23T05:56:08.062Z,45.00
2019-03-23T05:58:38.345Z,45.37
2019-03-23T06:01:08.596Z,43.87
2019-03-23T06:03:38.868Z,45.10
2019-03-23T06:06:09.122Z,43.03
2019-03-23T06:08:39.689Z,41.03
2019-03-23T06:11:09.941Z,42.00
2019-03-23T06:13:40.231Z,40.83
2019-03-23T06:16:10.517Z,41.03
2019-03-23T06:18:40.775Z,41.60
2019-03-23T06:21:11.037Z,43.07
2019-03-23T06:23:41.294Z,43.33
2019-03-23T06:26:11.558Z,41.97
2019-03-23T06:28:41.851Z,41.87
2019-03-23T06:31:12.126Z,41.27
2019-03-23T06:33:42.365Z,37.57
2019-03-23T06:36:12.879Z,40.53
2019-03-23T06:38:43.148Z,39.47
2019-03-23T06:41:13.404Z,36.23
2019-03-23T06:43:43.662Z,38.97
2019-03-23T06:46:13.929Z,37.20
2019-03-23T06:48:44.211Z,40.13
2019-03-23T06:51:14.529Z,40.70
2019-03-23T06:53:44.816Z,41.13
2019-03-23T06:56:15.095Z,38.67
2019-03-23T06:58:45.347Z,42.17
2019-03-23T07:01:15.654Z,42.40
2019-03-23T07:03:45.918Z,44.53
2019-03-23T07:06:16.202Z,45.43
2019-03-23T07:08:46.461Z,48.43
2019-03-23T07:11:16.749Z,44.63
2019-03-23T07:13:47.033Z,42.20
2019-03-23T07:16:17.318Z,45.03
2019-03-23T07:18:47.566Z,45.40
2019-03-23T07:21:17.829Z,47.10
2019-03-23T07:23:48.083Z,46.50
2019-03-23T07:26:18.376Z,45.00
2019-03-23T07:28:48.674Z,48.40
2019-03-23T07:31:18.963Z,46.93
2019-03-23T07:33:49.214Z,46.80
2019-03-23T07:36:19.478Z,47.30
2019-03-23T07:38:49.767Z,44.87
2019-03-23T07:41:20.022Z,50.00
2019-03-23T07:43:50.314Z,50.17
2019-03-23T07:46:20.821Z,51.87
2019-03-23T07:48:51.086Z,53.23
2019-03-23T07:51:21.352Z,55.57
2019-03-23T07:53:51.664Z,64.80
2019-03-23T07:56:21.928Z,57.13
2019-03-23T07:58:52.193Z,59.80
2019-03-23T08:01:22.468Z,55.50
2019-03-23T08:03:52.755Z,55.30
2019-03-23T08:06:24.414Z,57.83
2019-03-23T08:08:54.672Z,52.70
2019-03-23T08:11:24.993Z,53.43
2019-03-23T08:13:55.343Z,51.80
2019-03-23T08:16:25.613Z,55.43
2019-03-23T08:18:56.005Z,53.60
2019-03-23T08:21:26.302Z,52.40
2019-03-23T08:23:56.587Z,53.10
2019-03-23T08:26:26.867Z,53.00
2019-03-23T08:28:57.123Z,52.10
2019-03-23T08:31:27.413Z,55.13
2019-03-23T08:33:57.694Z,53.20
2019-03-23T08:36:28.253Z,53.40
2019-03-23T08:38:58.516Z,54.70
2019-03-23T08:41:28.774Z,52.80
2019-03-23T08:43:59.035Z,51.10
2019-03-23T08:46:29.292Z,49.17
2019-03-23T08:48:59.553Z,48.00
2019-03-23T08:51:29.849Z,49.03
2019-03-23T08:54:00.111Z,47.83
2019-03-23T08:56:30.369Z,52.70
2019-03-23T08:59:00.674Z,53.07
2019-03-23T09:01:30.920Z,48.63
2019-03-23T09:04:01.180Z,47.83
2019-03-23T09:06:31.442Z,49.87
2019-03-23T09:09:01.734Z,46.30
2019-03-23T09:11:31.986Z,46.20
2019-03-23T09:14:02.349Z,48.57
2019-03-23T09:16:32.618Z,48.47
2019-03-23T09:19:02.929Z,45.13
2019-03-23T09:21:33.258Z,46.10
2019-03-23T09:24:03.524Z,44.73
2019-03-23T09:26:33.783Z,44.57
2019-03-23T09:29:04.336Z,43.70
2019-03-23T09:31:34.621Z,45.80
2019-03-23T09:34:04.916Z,43.30
2019-03-23T09:36:35.165Z,43.07
2019-03-23T09:39:07.542Z,45.17
2019-03-23T09:41:37.833Z,45.47
2019-03-23T09:44:08.116Z,42.73
2019-03-23T09:46:38.369Z,42.97
2019-03-23T09:49:09.729Z,44.70
2019-03-23T09:51:43.219Z,46.57
2019-03-23T09:54:13.513Z,45.10
2019-03-23T09:56:43.778Z,46.73
2019-03-23T09:59:15.635Z,43.87
2019-03-23T10:01:45.930Z,45.83
2019-03-23T10:04:16.189Z,45.53
2019-03-23T10:06:46.449Z,44.33
2019-03-23T10:09:16.960Z,45.07
2019-03-23T10:11:47.254Z,43.37
2019-03-23T10:14:17.531Z,43.07
2019-03-23T10:16:47.793Z,43.50
2019-03-23T10:19:18.064Z,42.10
2019-03-23T10:21:48.638Z,40.20
2019-03-23T10:24:19.607Z,40.90
2019-03-23T10:26:52.135Z,38.70
2019-03-23T10:29:21.903Z,40.07
2019-03-23T10:31:52.184Z,39.33
2019-03-23T10:34:22.471Z,39.93
2019-03-23T10:36:52.757Z,38.23
2019-03-23T10:39:23.022Z,37.97
2019-03-23T10:41:53.582Z,37.97
2019-03-23T10:44:24.354Z,40.23
2019-03-23T10:46:54.900Z,40.47
2019-03-23T10:49:25.195Z,40.20
2019-03-23T10:51:55.448Z,40.67
2019-03-23T10:54:26.009Z,42.87
2019-03-23T10:56:56.265Z,42.03
2019-03-23T10:59:28.046Z,42.73
2019-03-23T11:01:58.415Z,40.57
2019-03-23T11:04:28.682Z,42.77
2019-03-23T11:06:58.975Z,42.03
2019-03-23T11:09:29.626Z,41.13
2019-03-23T11:11:59.928Z,40.03
2019-03-23T11:14:30.180Z,39.87
2019-03-23T11:17:01.390Z,41.03
2019-03-23T11:19:31.674Z,39.60
2019-03-23T11:22:01.961Z,38.23
2019-03-23T11:24:32.221Z,33.33
2019-03-23T11:27:02.515Z,33.43
2019-03-23T11:29:32.802Z,34.83
2019-03-23T11:32:03.093Z,35.60
2019-03-23T11:34:33.379Z,37.80
2019-03-23T11:37:03.668Z,39.03
2019-03-23T11:39:33.969Z,41.67
2019-03-23T11:42:04.257Z,41.57
2019-03-23T11:44:34.547Z,44.83
2019-03-23T11:47:05.273Z,42.80
2019-03-23T11:49:35.524Z,44.70
2019-03-23T11:52:06.294Z,44.13
2019-03-23T11:54:36.606Z,45.73
2019-03-23T11:57:06.863Z,45.67
2019-03-23T11:59:37.130Z,44.43
2019-03-23T12:02:07.653Z,43.70
2019-03-23T12:04:37.959Z,42.07
2019-03-23T12:07:08.228Z,41.07
2019-03-23T12:09:38.499Z,43.20
2019-03-23T12:12:08.766Z,42.97
2019-03-23T12:14:39.031Z,41.97
2019-03-23T12:17:09.356Z,43.00
2019-03-23T12:19:39.779Z,41.40
2019-03-23T12:22:10.072Z,43.03
2019-03-23T12:24:40.330Z,44.97
2019-03-23T12:27:10.586Z,42.40
2019-03-23T12:29:40.881Z,42.37
2019-03-23T12:32:11.161Z,43.07
2019-03-23T12:34:41.420Z,42.90
2019-03-23T12:37:11.685Z,35.30
2019-03-23T12:39:41.984Z,42.43
2019-03-23T12:42:12.305Z,44.30
2019-03-23T12:44:42.569Z,44.50
2019-03-23T12:47:12.827Z,44.83
2019-03-23T12:49:43.120Z,46.17
2019-03-23T12:52:13.373Z,44.40
2019-03-23T12:54:43.635Z,45.37
2019-03-23T12:57:13.926Z,47.73
2019-03-23T12:59:44.994Z,46.73
2019-03-23T13:02:15.274Z,45.73
2019-03-23T13:04:45.653Z,46.77
2019-03-23T13:07:15.935Z,46.20
2019-03-23T13:09:46.796Z,48.43
2019-03-23T13:12:17.083Z,46.10
2019-03-23T13:14:47.331Z,44.50
2019-03-23T13:17:17.624Z,45.63
2019-03-23T13:19:49.631Z,43.17
2019-03-23T13:22:19.887Z,41.70
2019-03-23T13:24:50.462Z,44.53
2019-03-23T13:27:20.759Z,44.43
2019-03-23T13:29:51.039Z,44.00
2019-03-23T13:32:21.502Z,40.47
2019-03-23T13:34:52.029Z,42.27
2019-03-23T13:37:22.329Z,41.77
2019-03-23T13:39:52.591Z,40.07
2019-03-23T13:42:24.027Z,40.60
2019-03-23T13:44:54.343Z,37.67
2019-03-23T13:47:24.596Z,33.50
2019-03-23T13:49:54.927Z,31.47
2019-03-23T13:52:25.184Z,29.13
2019-03-23T13:54:55.470Z,29.43
2019-03-23T13:57:25.732Z,27.03
2019-03-23T13:59:55.995Z,27.50
2019-03-23T14:02:27.058Z,26.43
2019-03-23T14:04:57.585Z,25.17
2019-03-23T14:07:27.917Z,25.90
2019-03-23T14:09:58.210Z,26.07
2019-03-23T14:12:28.502Z,26.53
2019-03-23T14:15:00.030Z,25.30
2019-03-23T14:17:30.399Z,26.57
2019-03-23T14:20:00.669Z,26.77
2019-03-23T14:22:31.025Z,26.10
2019-03-23T14:25:02.264Z,25.93
2019-03-23T14:27:32.526Z,26.57
2019-03-23T14:30:02.823Z,27.77
2019-03-23T14:32:33.077Z,26.33
2019-03-23T14:35:05.277Z,25.70
2019-03-23T14:37:35.573Z,25.90
2019-03-23T14:40:06.495Z,26.30
2019-03-23T14:42:37.055Z,25.50
2019-03-23T14:45:07.390Z,26.20
2019-03-23T14:47:37.656Z,25.97
2019-03-23T14:50:08.318Z,25.37
2019-03-23T14:52:38.579Z,25.87
2019-03-23T14:55:08.845Z,25.33
2019-03-23T14:57:40.510Z,26.03
2019-03-23T15:00:11.176Z,24.00
2019-03-23T15:02:42.605Z,26.07
2019-03-23T15:05:12.908Z,25.03
2019-03-23T15:07:43.157Z,24.80
2019-03-23T15:10:13.414Z,25.33
2019-03-23T15:12:43.710Z,22.30
2019-03-23T15:15:14.011Z,24.23
2019-03-23T15:17:48.746Z,21.07
2019-03-23T15:20:16.324Z,21.90
2019-03-23T15:22:46.588Z,22.27
2019-03-23T15:25:16.875Z,21.80
2019-03-23T15:27:48.704Z,19.37
2019-03-23T15:30:19.156Z,19.87
2019-03-23T15:32:49.418Z,20.43
2019-03-23T15:35:19.858Z,19.63
2019-03-23T15:37:50.180Z,18.93
2019-03-23T15:40:20.467Z,19.53
2019-03-23T15:42:51.190Z,19.57
2019-03-23T15:45:21.480Z,19.77
2019-03-23T15:47:51.755Z,19.63
2019-03-23T15:50:22.020Z,20.43
2019-03-23T15:52:52.315Z,18.77
2019-03-23T15:55:22.599Z,18.67
2019-03-23T15:57:52.853Z,17.10
2019-03-23T16:00:23.444Z,14.43
2019-03-23T16:02:53.741Z,13.60
2019-03-23T16:05:24.287Z,13.63
2019-03-23T16:07:54.553Z,13.63
2019-03-23T16:10:24.811Z,15.17
2019-03-23T16:12:55.083Z,14.90
2019-03-23T16:15:25.345Z,14.77
2019-03-23T16:17:55.916Z,14.07
2019-03-23T16:20:26.171Z,14.30
2019-03-23T16:22:56.682Z,14.10
2019-03-23T16:25:27.250Z,13.93
2019-03-23T16:27:57.948Z,11.87
2019-03-23T16:30:31.589Z,12.97
2019-03-23T16:33:02.138Z,13.50
2019-03-23T16:35:32.425Z,13.50
2019-03-23T16:38:02.691Z,16.00
2019-03-23T16:40:32.984Z,13.77
2019-03-23T16:43:03.280Z,14.70
2019-03-23T16:45:33.568Z,12.77
2019-03-23T16:48:03.844Z,12.33
2019-03-23T16:50:34.127Z,14.67
2019-03-23T16:53:04.413Z,11.33
2019-03-23T16:55:34.710Z,11.77
2019-03-23T16:58:05.007Z,12.37
2019-03-23T17:00:37.014Z,11.93
2019-03-23T17:03:10.903Z,13.23
2019-03-23T17:05:41.189Z,12.23
2019-03-23T17:08:11.442Z,9.70
2019-03-23T17:10:41.735Z,10.50
2019-03-23T17:13:11.984Z,10.50
2019-03-23T17:15:42.246Z,9.83
2019-03-23T17:18:12.537Z,10.33
2019-03-23T17:20:42.791Z,9.83
2019-03-23T17:23:13.050Z,11.90
2019-03-23T17:25:43.313Z,10.70
2019-03-23T17:28:13.601Z,10.17
2019-03-23T17:30:43.865Z,10.10
2019-03-23T17:33:14.130Z,10.80
2019-03-23T17:35:44.390Z,10.03
2019-03-23T17:38:15.248Z,10.93
2019-03-23T17:40:45.717Z,10.87
2019-03-23T17:43:15.986Z,10.53
2019-03-23T17:45:46.275Z,10.10
2019-03-23T17:48:16.541Z,11.03
2019-03-23T17:50:46.797Z,11.57
2019-03-23T17:53:17.094Z,11.90
2019-03-23T17:55:47.346Z,11.67
2019-03-23T17:58:17.636Z,12.03
2019-03-23T18:00:47.904Z,12.70
2019-03-23T18:03:18.163Z,13.53
2019-03-23T18:05:48.453Z,13.10
2019-03-23T18:08:18.728Z,12.93
2019-03-23T18:10:49.041Z,13.27
2019-03-23T18:13:19.349Z,13.70
2019-03-23T18:15:49.606Z,12.70
2019-03-23T18:18:19.899Z,13.70
2019-03-23T18:20:50.156Z,14.43
2019-03-23T18:23:20.422Z,15.33
2019-03-23T18:25:50.705Z,13.87
2019-03-23T18:28:20.970Z,14.80
2019-03-23T18:30:51.268Z,15.50
2019-03-23T18:33:21.557Z,14.03
2019-03-23T18:35:51.843Z,14.30
2019-03-23T18:38:22.105Z,14.07
2019-03-23T18:40:52.398Z,13.90
2019-03-23T18:43:27.445Z,13.40
2019-03-23T18:45:54.700Z,13.53
2019-03-23T18:48:24.995Z,14.93
2019-03-23T18:50:55.826Z,14.20
2019-03-23T18:53:26.095Z,15.60
2019-03-23T18:55:56.363Z,15.97
2019-03-23T18:58:27.568Z,16.73
2019-03-23T19:00:57.840Z,16.70
2019-03-23T19:03:28.143Z,20.13
2019-03-23T19:05:58.406Z,19.30
2019-03-23T19:08:28.727Z,19.70
2019-03-23T19:10:59.015Z,18.53
2019-03-23T19:13:37.562Z,20.00
2019-03-23T19:16:01.276Z,20.23
2019-03-23T19:18:32.371Z,20.23
2019-03-23T19:21:02.669Z,20.43
2019-03-23T19:23:34.533Z,20.83
2019-03-23T19:26:05.002Z,22.97
2019-03-23T19:28:35.570Z,25.30
2019-03-23T19:31:05.827Z,22.80
2019-03-23T19:33:36.139Z,24.97
2019-03-23T19:36:07.473Z,22.03
2019-03-23T19:38:37.747Z,23.77
2019-03-23T19:41:08.044Z,21.60
2019-03-23T19:43:48.061Z,20.57
2019-03-23T19:46:10.530Z,21.57
2019-03-23T19:48:40.813Z,18.53
2019-03-23T19:51:12.767Z,21.17
2019-03-23T19:53:43.089Z,21.10
2019-03-23T19:56:13.383Z,19.33
2019-03-23T19:58:43.673Z,20.40
2019-03-23T20:01:13.991Z,18.20
2019-03-23T20:03:44.303Z,18.40
2019-03-23T20:06:14.591Z,16.80
2019-03-23T20:08:44.956Z,16.20
2019-03-23T20:11:15.284Z,16.07
2019-03-23T20:13:45.641Z,15.80
2019-03-23T20:16:16.001Z,17.87
2019-03-23T20:18:46.267Z,16.73
2019-03-23T20:21:16.571Z,16.20
2019-03-23T20:23:46.820Z,17.53
2019-03-23T20:26:17.083Z,16.80
2019-03-23T20:28:47.387Z,15.50
2019-03-23T20:31:17.881Z,17.00
2019-03-23T20:33:48.151Z,15.80
2019-03-23T20:36:18.461Z,17.70
2019-03-23T20:38:48.711Z,16.70
2019-03-23T20:41:19.005Z,16.63
2019-03-23T20:43:49.288Z,16.53
2019-03-23T20:46:19.559Z,17.83
2019-03-23T20:48:49.847Z,17.53
2019-03-23T20:51:20.138Z,19.53
2019-03-23T20:53:50.475Z,18.83
2019-03-23T20:56:20.728Z,19.87
2019-03-23T20:58:51.032Z,19.80
2019-03-23T21:01:21.381Z,19.67
2019-03-23T21:03:51.643Z,18.60
2019-03-23T21:06:21.900Z,20.97
2019-03-23T21:08:52.227Z,20.07
2019-03-23T21:11:22.497Z,19.37
2019-03-23T21:13:52.782Z,18.80
2019-03-23T21:16:23.739Z,20.77
2019-03-23T21:18:54.000Z,20.17
2019-03-23T21:21:24.254Z,21.17
2019-03-23T21:23:54.563Z,22.20
2019-03-23T21:26:24.831Z,20.63
2019-03-23T21:28:55.099Z,20.23
2019-03-23T21:31:25.658Z,23.73
2019-03-23T21:33:55.902Z,22.27
2019-03-23T21:36:26.196Z,24.20
2019-03-23T21:38:56.441Z,23.23
2019-03-23T21:41:26.722Z,22.73
2019-03-23T21:43:56.970Z,23.23
2019-03-23T21:46:27.259Z,22.03
2019-03-23T21:48:57.532Z,23.00
2019-03-23T21:51:27.787Z,22.93
2019-03-23T21:53:58.043Z,20.60
2019-03-23T21:56:28.340Z,23.47
2019-03-23T21:58:58.592Z,23.80
2019-03-23T22:01:28.880Z,23.70
2019-03-23T22:03:59.131Z,21.87
2019-03-23T22:06:29.434Z,24.23
2019-03-23T22:08:59.672Z,24.57
2019-03-23T22:11:29.921Z,24.80
2019-03-23T22:14:00.180Z,28.23
2019-03-23T22:16:30.427Z,26.83
2019-03-23T22:19:00.989Z,28.00
2019-03-23T22:21:31.232Z,26.07
2019-03-23T22:24:01.536Z,24.67
2019-03-23T22:26:31.827Z,25.87
2019-03-23T22:29:02.455Z,27.77
2019-03-23T22:31:32.746Z,26.60
2019-03-23T22:34:03.065Z,27.90
2019-03-23T22:36:33.318Z,26.33
2019-03-23T22:39:05.079Z,27.00
2019-03-23T22:41:35.353Z,25.73
2019-03-23T22:44:05.653Z,25.20
2019-03-23T22:46:35.933Z,27.30
2019-03-23T22:49:06.217Z,25.30
2019-03-23T22:51:36.486Z,23.40
2019-03-23T22:54:06.765Z,24.97
2019-03-23T22:56:37.044Z,25.00
2019-03-23T22:59:07.299Z,25.47
2019-03-23T23:01:37.733Z,23.27
2019-03-23T23:04:08.087Z,22.03
2019-03-23T23:06:38.633Z,21.93
2019-03-23T23:09:10.128Z,22.87
2019-03-23T23:11:41.477Z,22.63
2019-03-23T23:14:11.743Z,24.73
2019-03-23T23:16:42.027Z,22.90
2019-03-23T23:19:12.543Z,21.80
2019-03-23T23:21:42.834Z,19.97
2019-03-23T23:24:13.078Z,19.97
2019-03-23T23:26:43.333Z,17.93
2019-03-23T23:29:13.581Z,16.90
2019-03-23T23:31:43.839Z,17.90
2019-03-23T23:34:14.086Z,17.43
2019-03-23T23:36:44.372Z,17.27
2019-03-23T23:39:14.611Z,17.87
2019-03-23T23:41:44.899Z,17.70
2019-03-23T23:44:15.172Z,17.63
2019-03-23T23:46:45.412Z,16.60
2019-03-23T23:49:15.692Z,16.73
2019-03-23T23:51:50.055Z,17.60
2019-03-23T23:54:17.898Z,17.43
2019-03-23T23:56:48.193Z,18.00
2019-03-23T23:59:18.482Z,18.40
